createdAt,value
2018-03-04T00:00:49.978Z,103.60
2018-03-04T00:03:18.087Z,107.03
2018-03-04T00:05:46.215Z,100.43
2018-03-04T00:08:14.324Z,102.37
2018-03-04T00:10:42.433Z,109.40
2018-03-04T00:13:10.553Z,101.77
2018-03-04T00:15:38.675Z,108.83
2018-03-04T00:18:06.784Z,102.17
2018-03-04T00:20:34.905Z,110.57
2018-03-04T00:23:03.041Z,105.90
2018-03-04T00:25:31.151Z,109.97
2018-03-04T00:27:59.268Z,108.03
2018-03-04T00:30:27.375Z,114.20
2018-03-04T00:32:55.480Z,110.80
2018-03-04T00:35:23.610Z,112.67
2018-03-04T00:37:51.709Z,106.83
2018-03-04T00:40:19.828Z,100.33
2018-03-04T00:42:47.937Z,112.53
2018-03-04T00:45:16.060Z,111.30
2018-03-04T00:47:47.421Z,112.07
2018-03-04T00:50:15.522Z,109.80
2018-03-04T00:52:43.653Z,109.00
2018-03-04T00:55:11.786Z,108.10
2018-03-04T00:57:39.895Z,112.63
2018-03-04T01:00:08.156Z,109.10
2018-03-04T01:02:36.277Z,110.30
2018-03-04T01:05:04.412Z,100.70
2018-03-04T01:07:32.529Z,104.53
2018-03-04T01:10:00.638Z,103.07
2018-03-04T01:12:28.735Z,107.30
2018-03-04T01:14:56.877Z,109.43
2018-03-04T01:17:24.983Z,106.33
2018-03-04T01:19:53.118Z,110.37
2018-03-04T01:22:21.237Z,108.43
2018-03-04T01:24:49.358Z,109.40
2018-03-04T01:27:17.460Z,106.87
2018-03-04T01:29:45.584Z,112.43
2018-03-04T01:32:13.692Z,108.13
2018-03-04T01:34:44.721Z,104.50
2018-03-04T01:37:12.856Z,117.67
2018-03-04T01:39:40.956Z,112.87
2018-03-04T01:42:09.087Z,121.53
2018-03-04T01:44:37.210Z,111.53
2018-03-04T01:47:05.304Z,109.63
2018-03-04T01:49:33.445Z,108.23
2018-03-04T01:52:01.569Z,118.20
2018-03-04T01:54:29.687Z,119.50
2018-03-04T01:56:57.795Z,107.33
2018-03-04T01:59:25.918Z,104.63
2018-03-04T02:01:54.039Z,114.23
2018-03-04T02:04:22.173Z,119.60
2018-03-04T02:06:50.285Z,104.83
2018-03-04T02:09:18.421Z,112.60
2018-03-04T02:11:46.570Z,109.60
2018-03-04T02:14:14.742Z,110.90
2018-03-04T02:16:42.843Z,112.00
2018-03-04T02:19:10.965Z,107.80
2018-03-04T02:21:39.098Z,109.37
2018-03-04T02:24:07.192Z,109.10
2018-03-04T02:26:35.328Z,115.50
2018-03-04T02:29:03.455Z,108.40
2018-03-04T02:31:31.565Z,105.63
2018-03-04T02:33:59.697Z,114.23
2018-03-04T02:36:27.822Z,111.17
2018-03-04T02:38:55.918Z,107.10
2018-03-04T02:41:24.036Z,106.40
2018-03-04T02:43:52.594Z,101.53
2018-03-04T02:46:20.735Z,109.77
2018-03-04T02:48:48.842Z,106.23
2018-03-04T02:51:16.956Z,108.40
2018-03-04T02:53:45.066Z,96.60
2018-03-04T02:56:13.207Z,107.77
2018-03-04T02:58:41.315Z,104.57
2018-03-04T03:01:09.435Z,104.47
2018-03-04T03:03:37.553Z,99.00
2018-03-04T03:06:05.663Z,101.53
2018-03-04T03:08:33.771Z,98.83
2018-03-04T03:11:01.886Z,96.53
2018-03-04T03:13:30.014Z,109.13
2018-03-04T03:15:58.114Z,112.40
2018-03-04T03:18:26.228Z,101.77
2018-03-04T03:20:54.678Z,97.70
2018-03-04T03:23:22.791Z,105.87
2018-03-04T03:25:50.900Z,103.30
2018-03-04T03:28:19.023Z,97.20
2018-03-04T03:30:47.156Z,101.60
2018-03-04T03:33:15.272Z,104.17
2018-03-04T03:35:45.293Z,107.07
2018-03-04T03:38:13.402Z,97.43
2018-03-04T03:40:41.519Z,106.67
2018-03-04T03:43:09.636Z,102.63
2018-03-04T03:45:37.740Z,101.67
2018-03-04T03:48:05.851Z,102.07
2018-03-04T03:50:33.999Z,93.33
2018-03-04T03:53:02.100Z,107.47
2018-03-04T03:55:30.225Z,99.10
2018-03-04T03:57:58.357Z,108.43
2018-03-04T04:00:26.466Z,96.70
2018-03-04T04:02:54.581Z,90.70
2018-03-04T04:05:22.694Z,100.43
2018-03-04T04:07:50.798Z,98.93
2018-03-04T04:10:18.931Z,103.07
2018-03-04T04:12:47.096Z,98.13
2018-03-04T04:15:15.202Z,95.60
2018-03-04T04:17:43.345Z,100.87
2018-03-04T04:20:11.461Z,96.87
2018-03-04T04:22:42.648Z,96.50
2018-03-04T04:25:10.885Z,96.03
2018-03-04T04:27:39.001Z,96.70
2018-03-04T04:30:07.118Z,89.50
2018-03-04T04:32:35.229Z,97.23
2018-03-04T04:35:06.275Z,93.37
2018-03-04T04:37:34.403Z,99.57
2018-03-04T04:40:02.513Z,96.30
2018-03-04T04:42:30.644Z,95.30
2018-03-04T04:44:58.801Z,92.83
2018-03-04T04:47:26.913Z,99.60
2018-03-04T04:49:55.087Z,99.73
2018-03-04T04:52:23.188Z,95.30
2018-03-04T04:54:51.314Z,95.80
2018-03-04T04:57:19.434Z,99.87
2018-03-04T04:59:47.539Z,95.43
2018-03-04T05:02:15.671Z,95.87
2018-03-04T05:04:43.808Z,95.87
2018-03-04T05:07:11.932Z,101.50
2018-03-04T05:09:40.051Z,93.67
2018-03-04T05:12:08.167Z,99.80
2018-03-04T05:14:36.290Z,96.03
2018-03-04T05:17:04.404Z,97.83
2018-03-04T05:19:32.722Z,98.93
2018-03-04T05:22:00.855Z,101.30
2018-03-04T05:24:28.955Z,92.87
2018-03-04T05:26:57.070Z,94.73
2018-03-04T05:29:25.220Z,89.47
2018-03-04T05:31:53.290Z,94.00
2018-03-04T05:34:21.414Z,96.50
2018-03-04T05:36:49.528Z,102.10
2018-03-04T05:39:17.725Z,93.60
2018-03-04T05:41:45.826Z,95.70
2018-03-04T05:44:13.945Z,91.13
2018-03-04T05:46:42.067Z,88.30
2018-03-04T05:49:10.176Z,99.03
2018-03-04T05:51:38.309Z,90.97
2018-03-04T05:54:06.428Z,90.47
2018-03-04T05:56:34.555Z,93.70
2018-03-04T05:59:02.730Z,94.70
2018-03-04T06:01:30.871Z,97.70
2018-03-04T06:03:58.976Z,91.90
2018-03-04T06:06:27.087Z,90.20
2018-03-04T06:08:56.164Z,94.40
2018-03-04T06:11:24.277Z,98.47
2018-03-04T06:13:52.398Z,97.53
2018-03-04T06:16:20.519Z,92.80
2018-03-04T06:18:48.619Z,99.07
2018-03-04T06:21:16.746Z,95.50
2018-03-04T06:23:44.881Z,97.23
2018-03-04T06:26:12.991Z,96.10
2018-03-04T06:28:41.096Z,95.97
2018-03-04T06:31:09.206Z,95.47
2018-03-04T06:33:37.318Z,92.70
2018-03-04T06:36:05.419Z,101.77
2018-03-04T06:38:33.551Z,101.30
2018-03-04T06:41:01.681Z,100.00
2018-03-04T06:43:29.802Z,102.53
2018-03-04T06:45:57.927Z,94.97
2018-03-04T06:48:26.046Z,100.17
2018-03-04T06:50:54.468Z,93.83
2018-03-04T06:53:22.584Z,95.70
2018-03-04T06:55:50.691Z,101.77
2018-03-04T06:58:18.826Z,100.57
2018-03-04T07:00:46.977Z,97.27
2018-03-04T07:03:15.073Z,98.63
2018-03-04T07:05:43.179Z,94.63
2018-03-04T07:08:11.300Z,93.87
2018-03-04T07:10:39.422Z,94.60
2018-03-04T07:13:07.538Z,96.20
2018-03-04T07:15:35.662Z,96.63
2018-03-04T07:18:03.770Z,99.37
2018-03-04T07:20:31.874Z,94.53
2018-03-04T07:23:00.024Z,98.73
2018-03-04T07:25:28.334Z,93.10
2018-03-04T07:27:56.447Z,100.60
2018-03-04T07:30:24.567Z,97.80
2018-03-04T07:32:52.685Z,91.77
2018-03-04T07:35:20.795Z,88.90
2018-03-04T07:37:48.908Z,89.80
2018-03-04T07:40:17.028Z,94.47
2018-03-04T07:42:45.866Z,91.33
2018-03-04T07:45:14.042Z,87.07
2018-03-04T07:47:42.156Z,86.37
2018-03-04T07:50:10.263Z,90.30
2018-03-04T07:52:38.399Z,93.80
2018-03-04T07:55:06.549Z,90.60
2018-03-04T07:57:34.751Z,79.50
2018-03-04T08:00:02.885Z,80.43
2018-03-04T08:02:31.030Z,82.20
2018-03-04T08:04:59.119Z,86.77
2018-03-04T08:07:27.254Z,79.90
2018-03-04T08:09:55.370Z,79.07
2018-03-04T08:12:23.488Z,81.30
2018-03-04T08:14:51.593Z,77.97
2018-03-04T08:17:23.259Z,72.67
2018-03-04T08:19:51.366Z,73.03
2018-03-04T08:22:19.488Z,73.27
2018-03-04T08:24:59.451Z,72.07
2018-03-04T08:27:39.466Z,79.73
2018-03-04T08:30:07.574Z,75.13
2018-03-04T08:32:35.671Z,76.33
2018-03-04T08:35:03.798Z,76.97
2018-03-04T08:37:31.900Z,72.83
2018-03-04T08:40:00.043Z,68.00
2018-03-04T08:42:28.184Z,69.37
2018-03-04T08:44:56.310Z,70.67
2018-03-04T08:47:24.405Z,64.57
2018-03-04T08:49:52.532Z,66.40
2018-03-04T08:52:20.648Z,68.23
2018-03-04T08:54:48.780Z,64.60
2018-03-04T08:57:16.930Z,67.63
2018-03-04T08:59:45.045Z,65.20
2018-03-04T09:02:13.220Z,62.80
2018-03-04T09:04:41.317Z,58.03
2018-03-04T09:07:09.436Z,62.20
2018-03-04T09:09:37.540Z,60.93
2018-03-04T09:12:05.668Z,65.73
2018-03-04T09:14:33.791Z,69.53
2018-03-04T09:17:01.909Z,62.13
2018-03-04T09:19:30.028Z,61.97
2018-03-04T09:21:58.166Z,58.80
2018-03-04T09:24:26.277Z,59.37
2018-03-04T09:26:54.398Z,62.23
2018-03-04T09:29:22.509Z,58.97
2018-03-04T09:31:50.629Z,56.27
2018-03-04T09:34:18.724Z,59.73
2018-03-04T09:36:46.850Z,51.67
2018-03-04T09:39:14.962Z,54.70
2018-03-04T09:41:43.083Z,67.70
2018-03-04T09:44:11.210Z,55.73
2018-03-04T09:46:39.328Z,54.60
2018-03-04T09:49:07.425Z,60.53
2018-03-04T09:51:35.588Z,56.97
2018-03-04T09:54:03.699Z,56.77
2018-03-04T09:56:31.824Z,53.60
2018-03-04T09:58:59.955Z,57.67
2018-03-04T10:01:28.108Z,60.07
2018-03-04T10:03:56.203Z,55.50
2018-03-04T10:06:24.484Z,56.90
2018-03-04T10:08:52.670Z,55.50
2018-03-04T10:11:20.840Z,57.50
2018-03-04T10:13:48.950Z,63.80
2018-03-04T10:16:17.073Z,62.30
2018-03-04T10:18:45.188Z,56.10
2018-03-04T10:21:13.314Z,52.40
2018-03-04T10:23:41.437Z,54.10
2018-03-04T10:26:09.560Z,51.03
2018-03-04T10:28:37.671Z,53.17
2018-03-04T10:31:05.792Z,54.23
2018-03-04T10:33:33.911Z,53.33
2018-03-04T10:36:02.017Z,58.13
2018-03-04T10:38:30.166Z,52.60
2018-03-04T10:40:58.277Z,49.70
2018-03-04T10:43:26.386Z,53.07
2018-03-04T10:45:54.517Z,54.27
2018-03-04T10:48:22.618Z,54.73
2018-03-04T10:50:50.729Z,55.53
2018-03-04T10:53:18.847Z,52.03
2018-03-04T10:55:46.948Z,57.20
2018-03-04T10:58:15.085Z,54.43
2018-03-04T11:00:47.042Z,50.70
2018-03-04T11:03:15.949Z,50.97
2018-03-04T11:05:44.052Z,54.37
2018-03-04T11:08:12.235Z,54.17
2018-03-04T11:10:40.344Z,53.43
2018-03-04T11:13:08.448Z,54.83
2018-03-04T11:15:36.563Z,54.40
2018-03-04T11:18:04.831Z,61.47
2018-03-04T11:20:32.950Z,57.50
2018-03-04T11:23:01.171Z,47.80
2018-03-04T11:25:29.287Z,54.10
2018-03-04T11:27:58.300Z,50.23
2018-03-04T11:30:26.446Z,46.27
2018-03-04T11:32:54.576Z,52.47
2018-03-04T11:35:22.679Z,41.23
2018-03-04T11:37:50.825Z,40.20
2018-03-04T11:40:18.945Z,57.47
2018-03-04T11:42:47.079Z,52.83
2018-03-04T11:45:15.223Z,46.17
2018-03-04T11:47:43.339Z,45.40
2018-03-04T11:50:11.444Z,53.03
2018-03-04T11:52:39.570Z,49.07
2018-03-04T11:55:07.675Z,43.07
2018-03-04T11:57:35.808Z,43.27
2018-03-04T12:00:03.977Z,48.67
2018-03-04T12:02:32.095Z,43.70
2018-03-04T12:05:00.213Z,47.03
2018-03-04T12:07:28.362Z,50.63
2018-03-04T12:09:56.484Z,45.43
2018-03-04T12:12:24.635Z,47.50
2018-03-04T12:14:52.716Z,47.23
2018-03-04T12:17:20.861Z,45.67
2018-03-04T12:19:48.997Z,51.63
2018-03-04T12:22:20.186Z,45.30
2018-03-04T12:24:48.359Z,43.67
2018-03-04T12:27:16.564Z,45.93
2018-03-04T12:29:44.718Z,43.70
2018-03-04T12:32:13.101Z,43.17
2018-03-04T12:34:41.677Z,27.73
2018-03-04T12:37:09.805Z,32.57
2018-03-04T12:39:38.096Z,37.93
2018-03-04T12:42:06.247Z,33.33
2018-03-04T12:44:34.321Z,39.50
2018-03-04T12:47:02.450Z,33.67
2018-03-04T12:49:30.559Z,27.97
2018-03-04T12:51:58.679Z,44.13
2018-03-04T12:54:26.846Z,36.27
2018-03-04T12:56:54.961Z,38.50
2018-03-04T12:59:23.074Z,44.23
2018-03-04T13:01:51.253Z,27.53
2018-03-04T13:04:19.442Z,28.63
2018-03-04T13:06:47.584Z,31.47
2018-03-04T13:09:15.693Z,32.43
2018-03-04T13:11:43.798Z,29.10
2018-03-04T13:14:11.934Z,25.63
2018-03-04T13:16:40.107Z,30.03
2018-03-04T13:19:08.238Z,30.60
2018-03-04T13:21:36.365Z,24.33
2018-03-04T13:24:04.488Z,19.93
2018-03-04T13:26:32.605Z,23.50
2018-03-04T13:29:00.724Z,27.03
2018-03-04T13:31:32.474Z,28.20
2018-03-04T13:34:00.592Z,27.53
2018-03-04T13:36:28.716Z,26.60
2018-03-04T13:38:56.835Z,31.70
2018-03-04T13:41:24.987Z,28.90
2018-03-04T13:43:53.116Z,23.83
2018-03-04T13:46:21.269Z,26.17
2018-03-04T13:48:49.409Z,26.47
2018-03-04T13:51:17.714Z,20.83
2018-03-04T13:53:45.846Z,21.77
2018-03-04T13:56:13.975Z,20.23
2018-03-04T13:58:42.131Z,34.10
2018-03-04T14:01:10.271Z,23.43
2018-03-04T14:03:38.377Z,21.70
2018-03-04T14:06:06.514Z,24.10
2018-03-04T14:08:34.643Z,26.93
2018-03-04T14:11:02.840Z,27.97
2018-03-04T14:13:30.969Z,28.67
2018-03-04T14:15:59.097Z,26.67
2018-03-04T14:18:27.464Z,26.63
2018-03-04T14:20:55.614Z,30.03
2018-03-04T14:23:23.738Z,32.70
2018-03-04T14:25:51.861Z,26.57
2018-03-04T14:28:19.994Z,25.90
2018-03-04T14:30:48.172Z,26.87
2018-03-04T14:33:16.303Z,26.63
2018-03-04T14:35:44.430Z,31.03
2018-03-04T14:38:12.545Z,25.20
2018-03-04T14:40:40.679Z,24.03
2018-03-04T14:43:08.779Z,27.27
2018-03-04T14:45:36.896Z,25.80
2018-03-04T14:48:05.012Z,27.03
2018-03-04T14:50:33.133Z,32.00
2018-03-04T14:53:02.156Z,27.30
2018-03-04T14:55:30.299Z,26.03
2018-03-04T14:57:58.423Z,25.47
2018-03-04T15:00:26.576Z,26.90
2018-03-04T15:02:54.711Z,31.93
2018-03-04T15:05:22.836Z,28.30
2018-03-04T15:07:50.949Z,26.73
2018-03-04T15:10:19.430Z,27.17
2018-03-04T15:12:47.526Z,29.53
2018-03-04T15:15:15.645Z,31.37
2018-03-04T15:17:43.773Z,28.67
2018-03-04T15:20:11.896Z,28.60
2018-03-04T15:22:40.020Z,28.53
2018-03-04T15:25:11.075Z,31.10
2018-03-04T15:27:39.212Z,30.57
2018-03-04T15:30:07.330Z,26.43
2018-03-04T15:32:35.475Z,24.63
2018-03-04T15:35:03.618Z,25.50
2018-03-04T15:37:32.595Z,23.87
2018-03-04T15:40:00.737Z,22.57
2018-03-04T15:42:28.878Z,25.50
2018-03-04T15:44:56.987Z,23.27
2018-03-04T15:47:25.150Z,23.13
2018-03-04T15:49:53.347Z,22.00
2018-03-04T15:52:21.398Z,24.63
2018-03-04T15:54:49.520Z,27.30
2018-03-04T15:57:17.624Z,21.63
2018-03-04T15:59:45.730Z,24.17
2018-03-04T16:02:13.865Z,27.27
2018-03-04T16:04:41.998Z,27.23
2018-03-04T16:07:10.122Z,30.33
2018-03-04T16:09:38.442Z,37.53
2018-03-04T16:12:06.541Z,23.60
2018-03-04T16:14:34.665Z,30.43
2018-03-04T16:17:02.923Z,30.80
2018-03-04T16:19:31.049Z,21.50
2018-03-04T16:21:59.185Z,17.73
2018-03-04T16:24:27.495Z,20.83
2018-03-04T16:26:55.739Z,19.77
2018-03-04T16:29:23.858Z,17.67
2018-03-04T16:31:51.988Z,18.97
2018-03-04T16:34:20.127Z,15.67
2018-03-04T16:36:48.558Z,17.37
2018-03-04T16:39:16.655Z,14.13
2018-03-04T16:41:44.752Z,14.20
2018-03-04T16:44:12.857Z,15.30
2018-03-04T16:46:40.976Z,15.50
2018-03-04T16:49:09.088Z,15.43
2018-03-04T16:51:37.194Z,14.07
2018-03-04T16:54:05.423Z,16.67
2018-03-04T16:56:33.536Z,14.80
2018-03-04T16:59:07.326Z,14.13
2018-03-04T17:01:35.436Z,14.60
2018-03-04T17:04:03.541Z,16.50
2018-03-04T17:06:31.672Z,17.53
2018-03-04T17:08:59.793Z,16.03
2018-03-04T17:11:27.947Z,17.40
2018-03-04T17:13:56.241Z,15.50
2018-03-04T17:16:24.339Z,16.93
2018-03-04T17:18:52.480Z,15.60
2018-03-04T17:21:20.608Z,17.10
2018-03-04T17:23:48.734Z,16.40
2018-03-04T17:26:16.861Z,15.17
2018-03-04T17:28:44.983Z,15.13
2018-03-04T17:31:13.101Z,14.57
2018-03-04T17:33:41.210Z,16.40
2018-03-04T17:36:09.319Z,14.87
2018-03-04T17:38:37.428Z,17.23
2018-03-04T17:41:05.534Z,15.47
2018-03-04T17:43:33.865Z,19.43
2018-03-04T17:46:01.963Z,16.37
2018-03-04T17:48:30.090Z,17.40
2018-03-04T17:50:58.203Z,17.37
2018-03-04T17:53:26.322Z,17.43
2018-03-04T17:55:54.437Z,16.83
2018-03-04T17:58:22.539Z,18.77
2018-03-04T18:00:50.656Z,17.87
2018-03-04T18:03:18.762Z,21.47
2018-03-04T18:05:46.873Z,19.93
2018-03-04T18:08:14.988Z,19.90
2018-03-04T18:10:43.325Z,19.87
2018-03-04T18:13:11.492Z,20.10
2018-03-04T18:15:39.625Z,23.13
2018-03-04T18:18:07.748Z,19.17
2018-03-04T18:20:35.881Z,19.83
2018-03-04T18:23:03.987Z,20.37
2018-03-04T18:25:32.105Z,21.53
2018-03-04T18:28:00.328Z,23.40
2018-03-04T18:30:28.403Z,20.00
2018-03-04T18:32:56.519Z,18.47
2018-03-04T18:35:24.642Z,20.73
2018-03-04T18:37:52.771Z,19.30
2018-03-04T18:40:20.892Z,25.77
2018-03-04T18:42:48.994Z,19.47
2018-03-04T18:45:17.113Z,21.93
2018-03-04T18:47:45.225Z,22.57
2018-03-04T18:50:13.320Z,21.43
2018-03-04T18:52:41.441Z,18.93
2018-03-04T18:55:09.555Z,23.50
2018-03-04T18:57:37.655Z,17.07
2018-03-04T19:00:05.771Z,19.53
2018-03-04T19:02:33.868Z,22.33
2018-03-04T19:05:01.998Z,19.07
2018-03-04T19:07:30.107Z,19.70
2018-03-04T19:09:58.232Z,20.70
2018-03-04T19:12:26.406Z,22.73
2018-03-04T19:14:54.467Z,23.80
2018-03-04T19:17:22.714Z,24.50
2018-03-04T19:19:50.823Z,26.03
2018-03-04T19:22:18.957Z,29.17
2018-03-04T19:24:47.091Z,29.57
2018-03-04T19:27:15.211Z,30.30
2018-03-04T19:29:43.340Z,37.77
2018-03-04T19:32:14.658Z,41.27
2018-03-04T19:34:45.708Z,36.60
2018-03-04T19:37:13.847Z,42.73
2018-03-04T19:39:41.960Z,43.03
2018-03-04T19:42:10.073Z,39.07
2018-03-04T19:44:38.319Z,42.57
2018-03-04T19:47:06.430Z,41.37
2018-03-04T19:49:34.576Z,38.80
2018-03-04T19:52:02.685Z,44.30
2018-03-04T19:54:30.827Z,39.70
2018-03-04T19:56:58.923Z,46.57
2018-03-04T19:59:27.059Z,45.07
2018-03-04T20:01:55.153Z,45.67
2018-03-04T20:04:23.278Z,43.70
2018-03-04T20:06:51.538Z,46.20
2018-03-04T20:09:19.666Z,43.93
2018-03-04T20:11:51.219Z,47.00
2018-03-04T20:14:22.955Z,49.13
2018-03-04T20:16:54.825Z,51.13
2018-03-04T20:19:22.923Z,48.27
2018-03-04T20:21:51.053Z,46.40
2018-03-04T20:24:19.161Z,46.77
2018-03-04T20:26:47.273Z,49.30
2018-03-04T20:29:17.332Z,46.37
2018-03-04T20:31:45.509Z,48.63
2018-03-04T20:34:17.164Z,51.37
2018-03-04T20:36:45.273Z,55.50
2018-03-04T20:39:13.377Z,55.87
2018-03-04T20:41:41.498Z,50.73
2018-03-04T20:44:09.634Z,49.67
2018-03-04T20:46:37.740Z,53.90
2018-03-04T20:49:05.835Z,58.73
2018-03-04T20:51:33.966Z,53.23
2018-03-04T20:54:02.981Z,53.67
2018-03-04T20:56:31.102Z,54.93
2018-03-04T20:58:59.228Z,62.23
2018-03-04T21:01:27.333Z,56.80
2018-03-04T21:03:55.439Z,60.00
2018-03-04T21:06:23.560Z,56.50
2018-03-04T21:08:51.669Z,59.23
2018-03-04T21:11:19.791Z,67.03
2018-03-04T21:13:47.912Z,66.03
2018-03-04T21:16:16.057Z,59.83
2018-03-04T21:18:44.174Z,64.70
2018-03-04T21:21:12.287Z,55.93
2018-03-04T21:23:40.428Z,60.93
2018-03-04T21:26:08.671Z,60.73
2018-03-04T21:28:36.783Z,59.90
2018-03-04T21:31:04.907Z,60.93
2018-03-04T21:33:33.081Z,63.13
2018-03-04T21:36:01.181Z,62.23
2018-03-04T21:38:29.285Z,61.47
2018-03-04T21:40:57.634Z,63.80
2018-03-04T21:43:25.982Z,60.77
2018-03-04T21:45:54.096Z,65.90
2018-03-04T21:48:22.291Z,58.37
2018-03-04T21:50:50.388Z,56.77
2018-03-04T21:53:18.508Z,60.00
2018-03-04T21:55:46.639Z,58.60
2018-03-04T21:58:14.755Z,57.00
2018-03-04T22:00:42.899Z,56.07
2018-03-04T22:03:11.029Z,58.67
2018-03-04T22:05:39.208Z,60.90
2018-03-04T22:08:07.272Z,61.83
2018-03-04T22:10:35.394Z,56.90
2018-03-04T22:13:03.511Z,60.20
2018-03-04T22:15:31.638Z,62.60
2018-03-04T22:17:59.745Z,53.40
2018-03-04T22:20:27.873Z,55.97
2018-03-04T22:22:55.967Z,56.73
2018-03-04T22:25:24.086Z,54.97
2018-03-04T22:27:52.920Z,56.27
2018-03-04T22:30:21.011Z,55.43
2018-03-04T22:32:49.120Z,55.10
2018-03-04T22:35:17.247Z,53.70
2018-03-04T22:37:46.251Z,49.17
2018-03-04T22:40:14.354Z,54.77
2018-03-04T22:42:42.485Z,51.40
2018-03-04T22:45:10.580Z,53.80
2018-03-04T22:47:38.700Z,43.77
2018-03-04T22:50:06.822Z,47.20
2018-03-04T22:52:34.918Z,49.43
2018-03-04T22:55:03.036Z,44.83
2018-03-04T22:57:31.156Z,41.77
2018-03-04T22:59:59.278Z,34.63
2018-03-04T23:02:27.390Z,34.90
2018-03-04T23:04:55.518Z,29.93
2018-03-04T23:07:23.638Z,25.83
2018-03-04T23:09:51.766Z,23.57
2018-03-04T23:12:19.897Z,19.03
2018-03-04T23:14:48.009Z,16.87
2018-03-04T23:17:16.093Z,16.60
2018-03-04T23:19:44.217Z,13.33
2018-03-04T23:22:12.331Z,13.47
2018-03-04T23:24:40.432Z,12.63
2018-03-04T23:27:08.571Z,14.13
2018-03-04T23:29:36.656Z,11.23
2018-03-04T23:32:04.774Z,11.77
2018-03-04T23:34:32.893Z,12.47
2018-03-04T23:37:00.992Z,9.83
2018-03-04T23:39:29.255Z,9.73
2018-03-04T23:41:57.370Z,11.67
2018-03-04T23:44:25.486Z,8.53
2018-03-04T23:46:53.579Z,8.93
2018-03-04T23:49:21.693Z,9.27
2018-03-04T23:51:49.791Z,9.77
2018-03-04T23:54:17.924Z,10.73
2018-03-04T23:56:46.027Z,9.10
2018-03-04T23:59:14.128Z,10.43
